This is the latest recevied weather packets stored in our database for station/object W9GWP. If no packets are shown the sender has not sent any weather packets the latest 10 day(s).
| Time | Temp. | Humidity | Pressure | Rain* | Wind** | Luminosity | Snow |
|---|---|---|---|---|---|---|---|
| 1777464981 | 8.89° C | 86% | 1042.7 hPa | 0 mm | - | 12 W/m² | - |
| 1777464080 | 8.89° C | 86% | 1042.7 hPa | 0 mm | - | 5 W/m² | - |
| 1777463177 | 8.89° C | 87% | 1042.3 hPa | 0 mm | - | 2 W/m² | - |
| 1777462277 | 8.89° C | 86% | 1042.3 hPa | 0 mm | - | 1 W/m² | - |
| 1777461376 | 8.89° C | 85% | 1042.3 hPa | 0 mm | - | 1 W/m² | - |
| 1777460475 | 9.44° C | 85% | 1042.2 hPa | 0 mm | - | 0 W/m² | - |
| 1777459570 | 9.44° C | 85% | 1042 hPa | 0 mm | - | 0 W/m² | - |
| 1777458668 | 10° C | 85% | 1041.9 hPa | 0 mm | - | 0 W/m² | - |
| 1777457768 | 10° C | 84% | 1042 hPa | 0 mm | - | 0 W/m² | - |
| 1777456865 | 10° C | 83% | 1042 hPa | 0 mm | - | 0 W/m² | - |
| 1777455963 | 10.56° C | 81% | 1041.5 hPa | 0 mm | - | 0 W/m² | - |
| 1777455060 | 10.56° C | 78% | 1041.6 hPa | 0 mm | - | 0 W/m² | - |
| 1777454160 | 11.11° C | 74% | 1041.5 hPa | 0 mm | - | 0 W/m² | - |
| 1777453257 | 11.67° C | 71% | 1042 hPa | 0 mm | - | 0 W/m² | - |
| 1777452353 | 11.67° C | 69% | 1041.9 hPa | 0 mm | - | 0 W/m² | - |
| 1777451452 | 12.22° C | 68% | 1041.8 hPa | 0 mm | - | 0 W/m² | - |
| 1777450551 | 12.22° C | 68% | 1042.3 hPa | 0 mm | - | 0 W/m² | - |
| 1777449647 | 12.22° C | 67% | 1042 hPa | 0 mm | - | 0 W/m² | - |
| 1777448747 | 12.22° C | 66% | 1041.8 hPa | 0 mm | - | 0 W/m² | - |
| 1777447842 | 12.78° C | 64% | 1042 hPa | 0 mm | - | 0 W/m² | - |
| 1777446939 | 12.78° C | 65% | 1041.8 hPa | 0 mm | - | 0 W/m² | - |
| 1777446034 | 12.22° C | 68% | 1041.8 hPa | 0 mm | - | 0 W/m² | - |
| 1777445135 | 12.22° C | 68% | 1041.7 hPa | 0 mm | - | 0 W/m² | - |
| 1777444230 | 12.78° C | 68% | 1041.5 hPa | 0 mm | - | 0 W/m² | - |
| 1777443328 | 12.78° C | 69% | 1042 hPa | 0 mm | - | 0 W/m² | - |
* Rain latest hour (hover to see other rain measurements)
** Current wind speed in m/s (hover to see current wind gust speed)